Time;durP1;ratioP1;P1;durP2;ratioP2;P2;SDS_P1;SDS_P2;PMS_P1;PMS_P2;Temp;Humidity;BMP_temperature;BMP_pressure;BME280_temperature;BME280_humidity;BME280_pressure;Samples;Min_cycle;Max_cycle;Signal;HPM_P1;HPM_P2
2022/05/31 00:02:14;;;;;;;;;;;;;;;;;;5053151;28;19976;-86
2022/05/31 00:04:39;;;;;;;;;;;;;;;;;;5065817;28;19909;-86
2022/05/31 00:07:04;;;;;;;;;;;;;;;;;;5059663;28;20264;-84
2022/05/31 00:09:30;;;;;;;;;;;;;;;;;;5058395;28;19916;-87
2022/05/31 00:11:57;;;;;;;;;;;;;;;;;;5031357;28;19963;-86
2022/05/31 00:14:22;;;;;;;;;;;;;;;;;;5070999;28;19908;-85
2022/05/31 00:16:47;;;;;;;;;;;;;;;;;;5076968;28;19950;-87
2022/05/31 00:19:13;;;;;;;;;;;;;;;;;;5050130;28;19912;-86
2022/05/31 00:21:39;;;;;;;;;;;;;;;;;;5015449;28;19916;-86
2022/05/31 00:24:08;;;;;;;;;;;;;;;;;;5073357;28;19916;-86
2022/05/31 00:26:33;;;;;;;;;;;;;;;;;;5031758;28;20372;-86
2022/05/31 00:28:59;;;;;;;;;;;;;;;;;;5011477;28;20375;-86
2022/05/31 00:31:24;;;;;;;;;;;;;;;;;;5022473;28;19920;-86
2022/05/31 00:33:50;;;;;;;;;;;;;;;;;;5055448;28;19980;-85
2022/05/31 00:36:16;;;;;;;;;;;;;;;;;;5065716;28;19908;-86
2022/05/31 00:38:41;;;;;;;;;;;;;;;;;;5041379;28;19967;-85
2022/05/31 00:41:23;;;;;;;;;;;;;;;;;;5055856;28;19915;-85
2022/05/31 00:43:48;;;;;;;;;;;;;;;;;;5075825;28;19954;-86
2022/05/31 00:46:13;;;;;;;;;;;;;;;;;;5029538;28;19909;-85
2022/05/31 00:48:39;;;;;;;;;;;;;;;;;;5072543;28;19935;-86
2022/05/31 00:51:05;;;;;;;;;;;;;;;;;;5045878;28;20367;-87
2022/05/31 00:53:30;;;;;;;;;;;;;;;;;;5029694;28;19916;-85
2022/05/31 00:55:56;;;;;;;;;;;;;;;;;;5048088;28;19913;-87
2022/05/31 00:58:21;;;;;;;;;;;;;;;;;;5013693;28;19959;-86
2022/05/31 01:00:46;;;;;;;;;;;;;;;;;;5055671;28;19919;-86
2022/05/31 01:03:12;;;;;;;;;;;;;;;;;;5044926;28;20363;-87
2022/05/31 01:05:37;;;;;;;;;;;;;;;;;;5038322;28;19936;-86
2022/05/31 01:08:11;;;;;;;;;;;;;;;;;;5045516;28;19908;-87
2022/05/31 01:10:54;;;;;;;;;;;;;;;;;;5054195;28;19912;-87
2022/05/31 01:13:54;;;;;;;;;;;;;;;;;;5066383;28;19919;-88
2022/05/31 01:16:43;;;;;;;;;;;;;;;;;;5054068;28;19908;-88
2022/05/31 01:22:18;;;;;;;;;;;;;;;;;;5046667;28;19913;-87
2022/05/31 01:24:44;;;;;;;;;;;;;;;;;;5049294;28;19958;-87
2022/05/31 01:27:10;;;;;;;;;;;;;;;;;;5058682;28;19908;-87
2022/05/31 01:29:35;;;;;;;;;;;;;;;;;;5069667;28;20311;-88
2022/05/31 01:32:00;;;;;;;;;;;;;;;;;;5052272;28;19917;-88
2022/05/31 01:34:26;;;;;;;;;;;;;;;;;;5042070;28;19999;-88
2022/05/31 01:36:52;;;;;;;;;;;;;;;;;;5041191;28;20363;-88
2022/05/31 01:39:17;;;;;;;;;;;;;;;;;;5045031;28;20327;-87
2022/05/31 01:41:42;;;;;;;;;;;;;;;;;;5062242;28;19908;-90
2022/05/31 01:44:08;;;;;;;;;;;;;;;;;;5029252;28;20380;-89
2022/05/31 01:46:33;;;;;;;;;;;;;;;;;;5056196;28;20006;-88
2022/05/31 01:48:59;;;;;;;;;;;;;;;;;;5044365;28;19915;-88
2022/05/31 01:51:25;;;;;;;;;;;;;;;;;;5061060;28;19916;-89
2022/05/31 01:53:50;;;;;;;;;;;;;;;;;;5040537;28;20423;-89
2022/05/31 01:56:16;;;;;;;;;;;;;;;;;;5045158;28;19916;-88
2022/05/31 01:58:41;;;;;;;;;;;;;;;;;;5036232;28;19913;-90
2022/05/31 02:01:06;;;;;;;;;;;;;;;;;;5040897;28;19915;-88
2022/05/31 02:03:32;;;;;;;;;;;;;;;;;;5054795;28;19916;-89
2022/05/31 02:05:57;;;;;;;;;;;;;;;;;;5006195;28;20004;-89
2022/05/31 02:08:23;;;;;;;;;;;;;;;;;;5046164;28;19948;-90
2022/05/31 02:10:48;;;;;;;;;;;;;;;;;;5044575;28;20406;-89
2022/05/31 02:13:14;;;;;;;;;;;;;;;;;;5036405;28;19913;-89
2022/05/31 02:16:02;;;;;;;;;;;;;;;;;;5051647;28;19913;-90
2022/05/31 02:21:40;;;;;;;;;;;;;;;;;;5052468;28;20015;-87
2022/05/31 02:24:07;;;;;;;;;;;;;;;;;;5015624;28;19915;-89
2022/05/31 02:26:32;;;;;;;;;;;;;;;;;;5031346;28;19909;-89
2022/05/31 02:28:58;;;;;;;;;;;;;;;;;;5019190;28;19945;-88
2022/05/31 02:31:23;;;;;;;;;;;;;;;;;;4996679;28;19912;-88
2022/05/31 02:33:49;;;;;;;;;;;;;;;;;;5030331;28;19959;-89
2022/05/31 02:36:14;;;;;;;;;;;;;;;;;;5052129;28;19913;-89
2022/05/31 02:38:40;;;;;;;;;;;;;;;;;;5036558;28;19916;-88
2022/05/31 02:41:06;;;;;;;;;;;;;;;;;;5029224;28;19908;-89
2022/05/31 02:43:31;;;;;;;;;;;;;;;;;;5022537;28;19913;-89
2022/05/31 02:45:56;;;;;;;;;;;;;;;;;;5031004;28;19909;-88
2022/05/31 02:48:22;;;;;;;;;;;;;;;;;;5029294;28;19913;-89
2022/05/31 02:50:48;;;;;;;;;;;;;;;;;;5038502;28;19913;-89
2022/05/31 02:53:14;;;;;;;;;;;;;;;;;;5018980;28;19909;-89
2022/05/31 02:55:39;;;;;;;;;;;;;;;;;;5049710;28;19954;-89
2022/05/31 02:58:23;;;;;;;;;;;;;;;;;;5035966;28;20410;-88
2022/05/31 03:01:21;;;;;;;;;;;;;;;;;;5020289;28;19916;-89
2022/05/31 03:04:05;;;;;;;;;;;;;;;;;;5012285;28;19959;-88
2022/05/31 03:06:49;;;;;;;;;;;;;;;;;;5037286;28;19919;-88
2022/05/31 03:09:14;;;;;;;;;;;;;;;;;;5048132;28;20007;-88
2022/05/31 03:11:40;;;;;;;;;;;;;;;;;;5051818;28;20298;-89
2022/05/31 03:14:05;;;;;;;;;;;;;;;;;;5005052;28;19954;-89
2022/05/31 03:16:31;;;;;;;;;;;;;;;;;;5044270;28;19921;-89
2022/05/31 03:18:57;;;;;;;;;;;;;;;;;;5023740;28;19913;-88
2022/05/31 03:21:22;;;;;;;;;;;;;;;;;;5042821;28;19909;-89
2022/05/31 03:23:48;;;;;;;;;;;;;;;;;;5042292;28;19916;-88
2022/05/31 03:26:13;;;;;;;;;;;;;;;;;;5028825;28;20342;-85
2022/05/31 03:28:38;;;;;;;;;;;;;;;;;;5040692;28;20140;-87
2022/05/31 03:31:04;;;;;;;;;;;;;;;;;;5035819;28;19923;-87
2022/05/31 03:33:29;;;;;;;;;;;;;;;;;;5062502;23;19968;-87
2022/05/31 03:35:55;;;;;;;;;;;;;;;;;;5078657;28;19904;-88
2022/05/31 03:38:28;;;;;;;;;;;;;;;;;;5119611;22;19925;-90
2022/05/31 03:40:57;;;;;;;;;;;;;;;;;;5031177;28;19909;-89
2022/05/31 03:43:47;;;;;;;;;;;;;;;;;;5039684;28;20072;-90
2022/05/31 03:46:22;;;;;;;;;;;;;;;;;;5050028;28;19960;-90
2022/05/31 03:49:10;;;;;;;;;;;;;;;;;;5031951;28;19972;-90
2022/05/31 03:51:52;;;;;;;;;;;;;;;;;;5041080;28;19948;-91
2022/05/31 03:54:25;;;;;;;;;;;;;;;;;;5049116;28;19909;-90
2022/05/31 03:57:19;;;;;;;;;;;;;;;;;;5132671;22;19966;-91
2022/05/31 03:59:50;;;;;;;;;;;;;;;;;;5064812;28;19892;-90
2022/05/31 04:02:16;;;;;;;;;;;;;;;;;;5057627;28;19996;-92
2022/05/31 04:04:42;;;;;;;;;;;;;;;;;;5051040;28;19908;-90
2022/05/31 04:07:08;;;;;;;;;;;;;;;;;;5063336;28;20282;-89
2022/05/31 04:09:33;;;;;;;;;;;;;;;;;;5061350;28;19903;-90
2022/05/31 04:11:59;;;;;;;;;;;;;;;;;;5077991;28;19916;-90
2022/05/31 04:14:43;;;;;;;;;;;;;;;;;;5098070;28;19912;-89
2022/05/31 04:17:09;;;;;;;;;;;;;;;;;;5081114;28;19930;-90
2022/05/31 04:19:35;;;;;;;;;;;;;;;;;;5063164;28;19905;-89
2022/05/31 04:22:01;;;;;;;;;;;;;;;;;;5062262;28;20003;-89
2022/05/31 04:24:26;;;;;;;;;;;;;;;;;;5057747;28;19931;-89
2022/05/31 04:27:21;;;;;;;;;;;;;;;;;;5090098;28;19927;-92
2022/05/31 04:30:08;;;;;;;;;;;;;;;;;;5092817;28;19912;-91
2022/05/31 04:33:15;;;;;;;;;;;;;;;;;;5069425;28;19917;-88
2022/05/31 04:35:40;;;;;;;;;;;;;;;;;;5038738;28;19948;-90
2022/05/31 04:38:06;;;;;;;;;;;;;;;;;;5061912;28;19908;-90
2022/05/31 04:40:43;;;;;;;;;;;;;;;;;;5064203;28;19908;-90
2022/05/31 04:43:35;;;;;;;;;;;;;;;;;;5091881;28;19904;-92
2022/05/31 04:46:27;;;;;;;;;;;;;;;;;;5095009;28;19923;-89
2022/05/31 04:49:02;;;;;;;;;;;;;;;;;;5077686;28;19958;-91
2022/05/31 04:51:29;;;;;;;;;;;;;;;;;;5095432;28;19916;-91
2022/05/31 04:53:57;;;;;;;;;;;;;;;;;;5078937;28;19904;-90
2022/05/31 04:56:42;;;;;;;;;;;;;;;;;;5066215;28;19939;-90
2022/05/31 04:59:10;;;;;;;;;;;;;;;;;;5046072;28;19908;-90
2022/05/31 05:01:35;;;;;;;;;;;;;;;;;;5080923;28;19916;-91
2022/05/31 05:04:05;;;;;;;;;;;;;;;;;;5061273;28;20003;-92
2022/05/31 05:06:39;;;;;;;;;;;;;;;;;;5036449;28;20083;-93
2022/05/31 05:09:05;;;;;;;;;;;;;;;;;;5013585;28;19956;-91
2022/05/31 05:11:32;;;;;;;;;;;;;;;;;;5040703;28;19901;-90
2022/05/31 05:14:16;;;;;;;;;;;;;;;;;;5078055;28;19908;-92
2022/05/31 05:16:54;;;;;;;;;;;;;;;;;;5049107;28;19979;-91
2022/05/31 05:19:20;;;;;;;;;;;;;;;;;;5021036;28;19995;-90
2022/05/31 05:21:52;;;;;;;;;;;;;;;;;;5038275;28;19908;-90
2022/05/31 05:24:17;;;;;;;;;;;;;;;;;;5021158;28;19909;-92
2022/05/31 05:27:11;;;;;;;;;;;;;;;;;;5026298;28;20004;-90
2022/05/31 05:32:46;;;;;;;;;;;;;;;;;;5059205;28;19909;-88
2022/05/31 05:35:14;;;;;;;;;;;;;;;;;;5044711;28;19909;-90
2022/05/31 05:37:43;;;;;;;;;;;;;;;;;;5033229;28;19905;-91
2022/05/31 05:40:09;;;;;;;;;;;;;;;;;;5038404;28;20345;-89
2022/05/31 05:42:38;;;;;;;;;;;;;;;;;;5039989;28;19948;-93
2022/05/31 05:45:10;;;;;;;;;;;;;;;;;;5016597;28;20324;-91
2022/05/31 05:47:37;;;;;;;;;;;;;;;;;;5032492;28;19908;-90
2022/05/31 05:50:06;;;;;;;;;;;;;;;;;;5044614;28;19918;-88
2022/05/31 05:52:50;;;;;;;;;;;;;;;;;;5061901;28;19915;-91
2022/05/31 05:55:36;;;;;;;;;;;;;;;;;;5019950;28;19913;-90
2022/05/31 05:58:28;;;;;;;;;;;;;;;;;;5021193;28;20304;-78
2022/05/31 06:01:12;;;;;;;;;;;;;;;;;;5031090;28;19909;-77
2022/05/31 06:03:43;;;;;;;;;;;;;;;;;;5010708;28;20010;-78
2022/05/31 06:06:09;;;;;;;;;;;;;;;;;;5016323;28;19913;-77
2022/05/31 06:08:34;;;;;;;;;;;;;;;;;;5013264;28;20419;-77
2022/05/31 06:11:00;;;;;;;;;;;;;;;;;;5015039;28;19921;-78
2022/05/31 06:13:25;;;;;;;;;;;;;;;;;;5007793;28;20442;-76
2022/05/31 06:15:50;;;;;;;;;;;;;;;;;;5030789;28;19948;-78
2022/05/31 06:18:16;;;;;;;;;;;;;;;;;;5032518;28;19944;-79
2022/05/31 06:20:41;;;;;;;;;;;;;;;;;;5019780;28;19909;-77
2022/05/31 06:23:07;;;;;;;;;;;;;;;;;;5004731;28;19916;-78
2022/05/31 06:25:32;;;;;;;;;;;;;;;;;;5034138;28;19909;-79
2022/05/31 06:28:10;;;;;;;;;;;;;;;;;;5000622;28;19909;-77
2022/05/31 06:30:37;;;;;;;;;;;;;;;;;;5016005;28;19936;-78
2022/05/31 06:33:03;;;;;;;;;;;;;;;;;;5007061;28;19912;-78
2022/05/31 06:35:28;;;;;;;;;;;;;;;;;;5016256;28;19908;-79
2022/05/31 06:38:02;;;;;;;;;;;;;;;;;;5016284;28;19952;-78
2022/05/31 06:40:29;;;;;;;;;;;;;;;;;;5002780;28;19909;-78
2022/05/31 06:43:03;;;;;;;;;;;;;;;;;;5033893;28;19963;-78
2022/05/31 06:45:47;;;;;;;;;;;;;;;;;;5026227;28;19913;-78
2022/05/31 06:48:31;;;;;;;;;;;;;;;;;;5031612;28;19916;-79
2022/05/31 06:51:11;;;;;;;;;;;;;;;;;;5029814;28;19919;-77
2022/05/31 06:56:50;;;;;;;;;;;;;;;;;;5033003;28;20028;-78
2022/05/31 06:59:28;;;;;;;;;;;;;;;;;;5026410;28;19908;-78
2022/05/31 07:02:03;;;;;;;;;;;;;;;;;;5011752;28;19909;-77
2022/05/31 07:04:29;;;;;;;;;;;;;;;;;;5018481;28;19913;-77
2022/05/31 07:06:54;;;;;;;;;;;;;;;;;;5011908;28;20380;-78
2022/05/31 07:09:52;;;;;;;;;;;;;;;;;;4995192;28;19909;-77
2022/05/31 07:12:40;;;;;;;;;;;;;;;;;;5001617;28;19915;-77
2022/05/31 07:15:31;;;;;;;;;;;;;;;;;;5018614;28;20217;-78
2022/05/31 07:18:28;;;;;;;;;;;;;;;;;;5012075;28;19909;-77
2022/05/31 07:20:53;;;;;;;;;;;;;;;;;;5022903;28;19909;-78
2022/05/31 07:23:19;;;;;;;;;;;;;;;;;;5008305;28;20059;-78
2022/05/31 07:25:52;;;;;;;;;;;;;;;;;;5027093;28;19916;-79
2022/05/31 07:28:18;;;;;;;;;;;;;;;;;;5000305;28;19909;-77
2022/05/31 07:30:44;;;;;;;;;;;;;;;;;;5022632;28;19963;-77
2022/05/31 07:33:17;;;;;;;;;;;;;;;;;;4998565;28;20356;-78
2022/05/31 07:35:45;;;;;;;;;;;;;;;;;;5028313;28;19916;-78
2022/05/31 07:38:11;;;;;;;;;;;;;;;;;;5000151;28;19916;-77
2022/05/31 07:40:38;;;;;;;;;;;;;;;;;;5027578;28;19955;-78
2022/05/31 07:43:03;;;;;;;;;;;;;;;;;;5003596;28;19910;-78
2022/05/31 07:45:33;;;;;;;;;;;;;;;;;;5001368;28;19909;-78
2022/05/31 07:47:59;;;;;;;;;;;;;;;;;;5014905;28;19909;-77
2022/05/31 07:50:24;;;;;;;;;;;;;;;;;;5000573;28;19915;-80
2022/05/31 07:52:54;;;;;;;;;;;;;;;;;;5004265;28;19973;-78
2022/05/31 07:55:38;;;;;;;;;;;;;;;;;;5012539;28;20055;-77
2022/05/31 07:58:42;;;;;;;;;;;;;;;;;;4934578;29;19915;-78
2022/05/31 08:01:30;;;;;;;;;;;;;;;;;;4909491;29;19972;-78
2022/05/31 08:04:04;;;;;;;;;;;;;;;;;;4993825;28;19999;-78
2022/05/31 08:06:29;;;;;;;;;;;;;;;;;;5025546;28;19945;-76
2022/05/31 08:08:56;;;;;;;;;;;;;;;;;;4981809;28;20363;-78
2022/05/31 08:11:21;;;;;;;;;;;;;;;;;;5007785;28;19964;-78
2022/05/31 08:13:47;;;;;;;;;;;;;;;;;;5032799;28;19963;-78
2022/05/31 08:16:12;;;;;;;;;;;;;;;;;;5029269;28;19992;-78
2022/05/31 08:18:38;;;;;;;;;;;;;;;;;;5017680;28;19983;-78
2022/05/31 08:21:04;;;;;;;;;;;;;;;;;;5014311;28;20374;-77
2022/05/31 08:23:29;;;;;;;;;;;;;;;;;;5031462;28;19941;-79
2022/05/31 08:25:54;;;;;;;;;;;;;;;;;;5015203;28;19959;-78
2022/05/31 08:28:20;;;;;;;;;;;;;;;;;;5032951;28;20390;-77
2022/05/31 08:30:45;;;;;;;;;;;;;;;;;;5016601;28;20000;-77
2022/05/31 08:33:10;;;;;;;;;;;;;;;;;;5019409;28;20012;-77
2022/05/31 08:35:36;;;;;;;;;;;;;;;;;;5027505;28;20006;-77
2022/05/31 08:38:01;;;;;;;;;;;;;;;;;;5013174;28;20371;-79
2022/05/31 08:40:27;;;;;;;;;;;;;;;;;;5025714;28;19976;-77
2022/05/31 08:42:52;;;;;;;;;;;;;;;;;;5013739;28;19916;-78
2022/05/31 08:45:18;;;;;;;;;;;;;;;;;;5034541;28;19915;-79
2022/05/31 08:47:43;;;;;;;;;;;;;;;;;;5031064;28;19939;-78
2022/05/31 08:52:53;;;;;;;;;;;;;;;;;;5021825;28;19909;-79
2022/05/31 08:58:03;;;;;;;;;;;;;;;;;;5013129;28;19913;-78
2022/05/31 09:00:28;;;;;;;;;;;;;;;;;;5033094;28;20295;-77
2022/05/31 09:02:53;;;;;;;;;;;;;;;;;;5033203;28;19909;-79
2022/05/31 09:05:19;;;;;;;;;;;;;;;;;;5008214;28;19980;-79
2022/05/31 09:07:44;;;;;;;;;;;;;;;;;;5029868;28;19909;-80
2022/05/31 09:10:09;;;;;;;;;;;;;;;;;;5013530;28;20019;-79
2022/05/31 09:12:35;;;;;;;;;;;;;;;;;;5013670;28;19952;-79
2022/05/31 09:15:03;;;;;;;;;;;;;;;;;;5026755;28;20351;-79
2022/05/31 09:17:28;;;;;;;;;;;;;;;;;;5034967;28;19905;-80
2022/05/31 09:19:54;;;;;;;;;;;;;;;;;;5047652;28;20287;-79
2022/05/31 09:22:19;;;;;;;;;;;;;;;;;;5014031;28;19916;-80
2022/05/31 09:24:45;;;;;;;;;;;;;;;;;;5035183;28;20347;-79
2022/05/31 09:27:11;;;;;;;;;;;;;;;;;;5023072;28;19921;-79
2022/05/31 09:29:36;;;;;;;;;;;;;;;;;;5017254;28;19913;-80
2022/05/31 09:32:04;;;;;;;;;;;;;;;;;;5019496;28;19920;-79
2022/05/31 09:34:30;;;;;;;;;;;;;;;;;;5014958;28;19909;-79
2022/05/31 09:36:55;;;;;;;;;;;;;;;;;;5029691;28;19909;-81
2022/05/31 09:39:21;;;;;;;;;;;;;;;;;;5019902;28;19909;-79
2022/05/31 09:41:46;;;;;;;;;;;;;;;;;;5011625;28;19912;-80
2022/05/31 09:44:12;;;;;;;;;;;;;;;;;;5030248;28;20317;-79
2022/05/31 09:46:37;;;;;;;;;;;;;;;;;;5022139;28;19963;-79
2022/05/31 09:49:02;;;;;;;;;;;;;;;;;;5023378;28;19905;-80
2022/05/31 09:51:28;;;;;;;;;;;;;;;;;;5017852;28;19913;-80
2022/05/31 09:57:06;;;;;;;;;;;;;;;;;;5024822;28;19920;-80
2022/05/31 09:59:50;;;;;;;;;;;;;;;;;;5031116;28;19963;-80
2022/05/31 10:02:35;;;;;;;;;;;;;;;;;;5017281;28;19913;-80
2022/05/31 10:05:00;;;;;;;;;;;;;;;;;;5006134;28;19949;-81
2022/05/31 10:07:25;;;;;;;;;;;;;;;;;;5027441;28;19908;-80
2022/05/31 10:09:51;;;;;;;;;;;;;;;;;;5035813;28;19909;-80
2022/05/31 10:12:16;;;;;;;;;;;;;;;;;;5029721;28;19913;-79
2022/05/31 10:14:42;;;;;;;;;;;;;;;;;;5022753;28;19909;-79
2022/05/31 10:17:08;;;;;;;;;;;;;;;;;;5008507;28;20347;-80
2022/05/31 10:19:33;;;;;;;;;;;;;;;;;;5016402;28;19927;-79
2022/05/31 10:21:58;;;;;;;;;;;;;;;;;;5024746;28;19909;-78
2022/05/31 10:24:46;;;;;;;;;;;;;;;;;;5035833;28;19935;-79
2022/05/31 10:27:47;;;;;;;;;;;;;;;;;;4989006;28;19980;-80
2022/05/31 10:30:33;;;;;;;;;;;;;;;;;;5022294;28;19913;-79
2022/05/31 10:33:12;;;;;;;;;;;;;;;;;;5010918;28;20452;-78
2022/05/31 10:35:37;;;;;;;;;;;;;;;;;;5033492;28;19944;-80
2022/05/31 10:38:04;;;;;;;;;;;;;;;;;;5029241;28;20331;-79
2022/05/31 10:40:29;;;;;;;;;;;;;;;;;;5025013;28;20355;-82
2022/05/31 10:42:54;;;;;;;;;;;;;;;;;;5022987;28;19928;-79
2022/05/31 10:45:20;;;;;;;;;;;;;;;;;;5015848;28;20375;-79
2022/05/31 10:47:45;;;;;;;;;;;;;;;;;;5030937;28;20387;-80
2022/05/31 10:50:11;;;;;;;;;;;;;;;;;;5016774;28;20007;-79
2022/05/31 10:52:36;;;;;;;;;;;;;;;;;;5030063;28;20355;-80
2022/05/31 10:55:01;;;;;;;;;;;;;;;;;;5037694;28;19904;-80
2022/05/31 10:57:27;;;;;;;;;;;;;;;;;;5027116;28;19935;-80
2022/05/31 10:59:53;;;;;;;;;;;;;;;;;;5018982;28;19918;-80
2022/05/31 11:02:18;;;;;;;;;;;;;;;;;;5002115;28;20468;-80
2022/05/31 11:04:43;;;;;;;;;;;;;;;;;;5000287;28;20039;-78
2022/05/31 11:07:09;;;;;;;;;;;;;;;;;;5022452;28;20000;-79
2022/05/31 11:12:19;;;;;;;;;;;;;;;;;;5028675;28;20379;-78
2022/05/31 11:14:44;;;;;;;;;;;;;;;;;;5008250;28;19916;-80
2022/05/31 11:17:10;;;;;;;;;;;;;;;;;;5024509;28;19909;-80
2022/05/31 11:19:35;;;;;;;;;;;;;;;;;;5017928;28;19909;-79
2022/05/31 11:22:00;;;;;;;;;;;;;;;;;;5029695;28;19919;-80
2022/05/31 11:24:26;;;;;;;;;;;;;;;;;;5019684;28;19963;-79
2022/05/31 11:26:51;;;;;;;;;;;;;;;;;;5015628;28;19970;-80
2022/05/31 11:29:17;;;;;;;;;;;;;;;;;;5031209;28;19967;-80
2022/05/31 11:31:42;;;;;;;;;;;;;;;;;;5029473;28;19912;-80
2022/05/31 11:34:08;;;;;;;;;;;;;;;;;;5028148;28;19915;-80
2022/05/31 11:36:33;;;;;;;;;;;;;;;;;;5032982;28;19909;-80
2022/05/31 11:38:58;;;;;;;;;;;;;;;;;;5005970;28;19909;-80
2022/05/31 11:41:24;;;;;;;;;;;;;;;;;;5015916;28;19949;-81
2022/05/31 11:43:50;;;;;;;;;;;;;;;;;;5002275;28;19909;-79
2022/05/31 11:46:15;;;;;;;;;;;;;;;;;;5023796;28;19954;-80
2022/05/31 11:48:41;;;;;;;;;;;;;;;;;;5019517;28;19913;-80
2022/05/31 11:51:06;;;;;;;;;;;;;;;;;;5004361;28;19963;-81
2022/05/31 11:53:31;;;;;;;;;;;;;;;;;;5020285;28;19928;-80
2022/05/31 11:55:57;;;;;;;;;;;;;;;;;;5028371;28;20264;-80
2022/05/31 11:58:22;;;;;;;;;;;;;;;;;;5014694;28;20016;-80
2022/05/31 12:00:48;;;;;;;;;;;;;;;;;;5011204;28;19913;-81
2022/05/31 12:03:13;;;;;;;;;;;;;;;;;;5047128;28;20264;-81
2022/05/31 12:05:39;;;;;;;;;;;;;;;;;;5027115;28;19909;-81
2022/05/31 12:08:04;;;;;;;;;;;;;;;;;;5029625;28;19909;-80
2022/05/31 12:10:29;;;;;;;;;;;;;;;;;;5018928;28;19913;-80
2022/05/31 12:12:55;;;;;;;;;;;;;;;;;;4988234;28;19909;-79
2022/05/31 12:15:23;;;;;;;;;;;;;;;;;;5014569;28;20390;-79
2022/05/31 12:17:48;;;;;;;;;;;;;;;;;;5019907;28;19916;-80
2022/05/31 12:20:14;;;;;;;;;;;;;;;;;;5035359;28;20300;-80
2022/05/31 12:22:39;;;;;;;;;;;;;;;;;;5013931;28;19909;-80
2022/05/31 12:25:05;;;;;;;;;;;;;;;;;;5031987;28;20314;-80
2022/05/31 12:27:30;;;;;;;;;;;;;;;;;;5026118;28;19963;-78
2022/05/31 12:29:56;;;;;;;;;;;;;;;;;;5014926;28;20380;-79
2022/05/31 12:32:21;;;;;;;;;;;;;;;;;;5016753;28;19993;-79
2022/05/31 12:34:46;;;;;;;;;;;;;;;;;;5015271;28;19944;-81
2022/05/31 12:37:12;;;;;;;;;;;;;;;;;;5044727;28;20310;-81
2022/05/31 12:39:38;;;;;;;;;;;;;;;;;;5019463;28;19909;-80
2022/05/31 12:42:03;;;;;;;;;;;;;;;;;;5014364;28;19963;-81
2022/05/31 12:44:28;;;;;;;;;;;;;;;;;;5026153;28;19947;-79
2022/05/31 12:46:55;;;;;;;;;;;;;;;;;;5014510;28;20390;-80
2022/05/31 12:49:21;;;;;;;;;;;;;;;;;;5028760;28;19919;-79
2022/05/31 12:51:46;;;;;;;;;;;;;;;;;;5016394;28;19917;-81
2022/05/31 12:54:15;;;;;;;;;;;;;;;;;;5025311;28;19905;-80
2022/05/31 12:56:40;;;;;;;;;;;;;;;;;;5005358;28;20324;-80
2022/05/31 12:59:06;;;;;;;;;;;;;;;;;;5013713;28;19920;-79
2022/05/31 13:01:32;;;;;;;;;;;;;;;;;;5025587;28;20375;-80
2022/05/31 13:03:57;;;;;;;;;;;;;;;;;;5018221;28;20394;-81
2022/05/31 13:06:22;;;;;;;;;;;;;;;;;;5015116;28;19944;-80
2022/05/31 13:08:48;;;;;;;;;;;;;;;;;;5031848;28;19992;-81
2022/05/31 13:19:35;;;;;;;;;;;;;;;;;;5012238;28;20296;-80
2022/05/31 13:22:00;;;;;;;;;;;;;;;;;;5012108;28;19912;-78
2022/05/31 13:24:26;;;;;;;;;;;;;;;;;;5030816;28;19905;-80
2022/05/31 13:26:51;;;;;;;;;;;;;;;;;;5024438;28;20434;-79
2022/05/31 13:29:16;;;;;;;;;;;;;;;;;;5011000;28;19909;-80
2022/05/31 13:31:42;;;;;;;;;;;;;;;;;;5001656;28;20040;-81
2022/05/31 13:34:07;;;;;;;;;;;;;;;;;;5018917;28;19916;-80
2022/05/31 13:36:32;;;;;;;;;;;;;;;;;;5010678;28;20256;-80
2022/05/31 13:38:58;;;;;;;;;;;;;;;;;;5038483;28;19999;-79
2022/05/31 13:41:23;;;;;;;;;;;;;;;;;;5041779;28;19987;-79
2022/05/31 13:43:50;;;;;;;;;;;;;;;;;;5025719;28;20288;-80
2022/05/31 13:46:15;;;;;;;;;;;;;;;;;;5017649;28;19937;-81
2022/05/31 13:48:41;;;;;;;;;;;;;;;;;;5025859;28;20324;-81
2022/05/31 13:51:06;;;;;;;;;;;;;;;;;;5008704;28;19920;-80
2022/05/31 13:53:56;;;;;;;;;;;;;;;;;;5018032;28;19917;-80
2022/05/31 13:56:22;;;;;;;;;;;;;;;;;;5026190;28;19909;-79
2022/05/31 13:58:47;;;;;;;;;;;;;;;;;;5006779;28;19988;-80
2022/05/31 14:01:13;;;;;;;;;;;;;;;;;;5019501;28;19909;-80
2022/05/31 14:03:38;;;;;;;;;;;;;;;;;;5036080;28;19994;-80
2022/05/31 14:06:04;;;;;;;;;;;;;;;;;;5016740;28;20284;-79
2022/05/31 14:08:29;;;;;;;;;;;;;;;;;;5028392;28;19963;-79
2022/05/31 14:10:55;;;;;;;;;;;;;;;;;;5015573;28;20358;-79
2022/05/31 14:13:20;;;;;;;;;;;;;;;;;;5031410;28;19909;-79
2022/05/31 14:15:46;;;;;;;;;;;;;;;;;;5031196;28;20304;-79
2022/05/31 14:18:11;;;;;;;;;;;;;;;;;;5030911;28;20352;-80
2022/05/31 14:20:36;;;;;;;;;;;;;;;;;;5022302;28;19931;-81
2022/05/31 14:23:02;;;;;;;;;;;;;;;;;;5024717;28;19910;-80
2022/05/31 14:25:27;;;;;;;;;;;;;;;;;;5012680;28;19913;-79
2022/05/31 14:27:52;;;;;;;;;;;;;;;;;;5011786;28;20451;-79
2022/05/31 14:30:18;;;;;;;;;;;;;;;;;;5048442;28;19909;-79
2022/05/31 14:32:44;;;;;;;;;;;;;;;;;;5021973;28;20296;-80
2022/05/31 14:35:10;;;;;;;;;;;;;;;;;;5004734;28;19972;-80
2022/05/31 14:37:35;;;;;;;;;;;;;;;;;;5030657;28;19916;-80
2022/05/31 14:40:03;;;;;;;;;;;;;;;;;;5030457;28;19913;-80
2022/05/31 14:42:29;;;;;;;;;;;;;;;;;;5004043;28;19915;-79
2022/05/31 14:44:54;;;;;;;;;;;;;;;;;;5027746;28;20584;-79
2022/05/31 14:47:19;;;;;;;;;;;;;;;;;;5041553;28;19909;-80
2022/05/31 14:49:45;;;;;;;;;;;;;;;;;;5024849;28;19909;-80
2022/05/31 14:52:10;;;;;;;;;;;;;;;;;;5020809;28;20450;-80
2022/05/31 14:54:36;;;;;;;;;;;;;;;;;;5006639;28;20269;-81
2022/05/31 14:57:01;;;;;;;;;;;;;;;;;;5008822;28;19975;-80
2022/05/31 14:59:27;;;;;;;;;;;;;;;;;;5041894;28;19938;-78
2022/05/31 15:01:52;;;;;;;;;;;;;;;;;;5021097;28;19959;-79
2022/05/31 15:04:18;;;;;;;;;;;;;;;;;;5038218;28;19909;-79
2022/05/31 15:06:43;;;;;;;;;;;;;;;;;;5013187;28;20275;-78
2022/05/31 15:09:13;;;;;;;;;;;;;;;;;;5032170;28;19999;-78
2022/05/31 15:19:51;;;;;;;;;;;;;;;;;;5044466;28;19912;-79
2022/05/31 15:22:17;;;;;;;;;;;;;;;;;;5040457;28;19968;-79
2022/05/31 15:24:42;;;;;;;;;;;;;;;;;;5031978;28;19909;-81
2022/05/31 15:27:08;;;;;;;;;;;;;;;;;;5039931;28;19909;-79
2022/05/31 15:29:33;;;;;;;;;;;;;;;;;;5050246;28;19909;-80
2022/05/31 15:31:58;;;;;;;;;;;;;;;;;;5045593;28;20484;-79
2022/05/31 15:34:24;;;;;;;;;;;;;;;;;;5061514;28;19909;-79
2022/05/31 15:36:49;;;;;;;;;;;;;;;;;;5043757;28;19944;-81
2022/05/31 15:39:14;;;;;;;;;;;;;;;;;;5036030;28;19973;-79
2022/05/31 15:41:47;;;;;;;;;;;;;;;;;;5029569;28;19909;-80
2022/05/31 15:44:13;;;;;;;;;;;;;;;;;;5029667;28;19918;-80
2022/05/31 15:46:39;;;;;;;;;;;;;;;;;;5024349;28;19905;-79
2022/05/31 15:49:05;;;;;;;;;;;;;;;;;;5030241;28;19984;-80
2022/05/31 15:51:30;;;;;;;;;;;;;;;;;;5060003;28;19939;-78
2022/05/31 15:53:56;;;;;;;;;;;;;;;;;;5015258;28;19909;-80
2022/05/31 15:56:22;;;;;;;;;;;;;;;;;;5033919;28;19976;-79
2022/05/31 15:58:50;;;;;;;;;;;;;;;;;;5033568;28;19920;-79
2022/05/31 16:01:16;;;;;;;;;;;;;;;;;;5022406;28;19909;-78
2022/05/31 16:03:42;;;;;;;;;;;;;;;;;;5019277;28;19916;-80
2022/05/31 16:06:07;;;;;;;;;;;;;;;;;;5032390;28;19916;-79
2022/05/31 16:08:33;;;;;;;;;;;;;;;;;;5050390;28;19909;-79
2022/05/31 16:10:58;;;;;;;;;;;;;;;;;;5036759;28;19918;-80
2022/05/31 16:13:24;;;;;;;;;;;;;;;;;;5013632;28;20276;-80
2022/05/31 16:15:49;;;;;;;;;;;;;;;;;;5027946;28;19931;-80
2022/05/31 16:18:14;;;;;;;;;;;;;;;;;;5007491;28;19991;-81
2022/05/31 16:20:40;;;;;;;;;;;;;;;;;;5029204;28;19913;-78
2022/05/31 16:23:06;;;;;;;;;;;;;;;;;;5018042;28;19915;-80
2022/05/31 16:25:31;;;;;;;;;;;;;;;;;;5028940;28;19909;-80
2022/05/31 16:27:57;;;;;;;;;;;;;;;;;;5036037;28;19916;-79
2022/05/31 16:33:06;;;;;;;;;;;;;;;;;;5018466;28;19996;-79
2022/05/31 16:35:32;;;;;;;;;;;;;;;;;;5032299;28;19964;-80
2022/05/31 16:43:26;;;;;;;;;;;;;;;;;;5024312;28;19909;-79
2022/05/31 16:45:51;;;;;;;;;;;;;;;;;;5019635;28;20358;-78
2022/05/31 16:48:17;;;;;;;;;;;;;;;;;;5021151;28;19913;-79
2022/05/31 16:50:42;;;;;;;;;;;;;;;;;;5035750;28;19912;-79
2022/05/31 16:53:08;;;;;;;;;;;;;;;;;;5026530;28;20232;-79
2022/05/31 16:55:33;;;;;;;;;;;;;;;;;;5010762;28;20280;-79
2022/05/31 16:57:59;;;;;;;;;;;;;;;;;;5035380;28;20240;-79
2022/05/31 17:00:24;;;;;;;;;;;;;;;;;;5025535;28;19972;-79
2022/05/31 17:02:50;;;;;;;;;;;;;;;;;;5025220;28;20419;-80
2022/05/31 17:05:15;;;;;;;;;;;;;;;;;;5023209;28;20261;-80
2022/05/31 17:15:53;;;;;;;;;;;;;;;;;;5013928;28;19917;-79
2022/05/31 17:18:19;;;;;;;;;;;;;;;;;;4986510;28;20519;-78
2022/05/31 17:20:44;;;;;;;;;;;;;;;;;;5019034;28;19909;-76
2022/05/31 17:23:14;;;;;;;;;;;;;;;;;;5011637;28;20332;-79
2022/05/31 17:25:39;;;;;;;;;;;;;;;;;;5037739;28;20368;-76
2022/05/31 17:28:05;;;;;;;;;;;;;;;;;;5007300;28;20004;-75
2022/05/31 17:30:33;;;;;;;;;;;;;;;;;;5001432;28;20398;-77
2022/05/31 17:32:59;;;;;;;;;;;;;;;;;;5021696;28;19980;-77
2022/05/31 17:35:24;;;;;;;;;;;;;;;;;;5025893;28;19955;-75
2022/05/31 17:37:51;;;;;;;;;;;;;;;;;;5014106;28;19916;-76
2022/05/31 17:40:17;;;;;;;;;;;;;;;;;;4998124;28;20485;-76
2022/05/31 17:42:42;;;;;;;;;;;;;;;;;;5004742;28;19947;-76
2022/05/31 17:45:07;;;;;;;;;;;;;;;;;;5014692;28;19951;-77
2022/05/31 17:47:33;;;;;;;;;;;;;;;;;;5019912;28;19909;-77
2022/05/31 17:49:58;;;;;;;;;;;;;;;;;;5031955;28;20383;-75
2022/05/31 17:52:24;;;;;;;;;;;;;;;;;;5021713;28;19943;-75